Portada
METAR-TAF:

METAR-TAF

Aeropuertos :

Amán, Jordania

Aeropuerto Civil de Amán

latitud: 31-59N, longitud: 035-59E, altitud: 767 m

Observación

El informe se hizo hace 28 minutos, a las 04:00 UTC
Viento calma
Temperatura 15°C
Humedad 67%
Presión 1015 hPa
Visibilidad: 6000 m

METAR: OJAM 280400Z 00000KT 6000 NSC 15/09 Q1015 NOSIG

Hora: 07:28 (04:28 UTC)

Pronóstico

El informe se hizo hace 5 horas y 28 minutos, a las 23:00 UTC
Pronóstico válido del 28 a las 00 UTC al 29 a las 06 UTC
Viento 8 kt del oeste
Visibilidad: 5000 m
calima
Temporalmente
del 28 a las 02 UTC al 28 a las 06 UTC
Viento 2 kt con dirección variable
Visibilidad: 3000 m
humo

TAF: OJAM 272300Z 2800/2906 28008KT 5000 HZ NSC TEMPO 2802/2806 VRB02KT 3000 FU

Observaciones y pronósticos meteorológicos de más de 4000 aeropuertos (mensajes METAR y TAF).

Los puntos amarillos y rojos representan las estaciones disponibles.

Ponga el ratón en el punto deseado para ver el nombre de la estación.

Haga clic para ver las observaciones y los pronósticos meteorológicos.

Para cambiar el mapa : haga clic en los botones verdes con una cruz de color negro para hacer un zoom, en el botón verde con un guión para alejar o en las flechas verdes para mapas adyacentes.


METAR-TAF: